createdAt,value
2022-11-22T00:08:42.433Z,1
2022-11-22T00:18:42.322Z,1
2022-11-22T00:28:42.371Z,7
2022-11-22T00:38:42.186Z,8
2022-11-22T00:48:42.105Z,12
2022-11-22T00:58:42.068Z,10
2022-11-22T01:07:33.684Z,1
2022-11-22T01:17:33.167Z,1
2022-11-22T01:27:33.117Z,1
2022-11-22T01:37:33.042Z,1
2022-11-22T01:47:32.979Z,1
2022-11-22T01:57:32.907Z,1
2022-11-22T02:07:32.940Z,1
2022-11-22T02:17:32.782Z,1
2022-11-22T02:27:32.717Z,1
2022-11-22T02:37:32.728Z,1
2022-11-22T02:47:32.572Z,1
2022-11-22T02:57:32.489Z,1
2022-11-22T03:07:32.515Z,1
2022-11-22T03:17:32.360Z,6
2022-11-22T03:27:32.285Z,8
2022-11-22T03:37:32.212Z,10
2022-11-22T03:47:32.154Z,9
2022-11-22T03:57:32.059Z,14
2022-11-22T04:07:32.040Z,13
2022-11-22T04:17:31.923Z,19
2022-11-22T04:27:31.861Z,16
2022-11-22T04:37:31.774Z,16
2022-11-22T04:47:31.698Z,9
2022-11-22T04:57:31.628Z,9
2022-11-22T05:07:31.621Z,10
2022-11-22T05:17:31.505Z,15
2022-11-22T05:27:31.424Z,17
2022-11-22T05:37:31.340Z,27
2022-11-22T05:47:31.289Z,29
2022-11-22T05:57:31.208Z,16
2022-11-22T06:07:31.244Z,18
2022-11-22T06:17:31.074Z,28
2022-11-22T06:27:31.003Z,22
2022-11-22T06:37:30.939Z,1
2022-11-22T06:47:30.865Z,1
2022-11-22T06:57:30.814Z,30
2022-11-22T07:07:30.769Z,47
2022-11-22T07:27:30.568Z,39
2022-11-22T07:37:30.494Z,36
2022-11-22T07:47:30.418Z,45
2022-11-22T07:57:30.377Z,40
2022-11-22T08:07:30.333Z,46
2022-11-22T08:17:30.203Z,50
2022-11-22T08:27:30.145Z,78
2022-11-22T08:37:30.063Z,92
2022-11-22T08:47:30.006Z,99
2022-11-22T08:57:29.933Z,99
2022-11-22T09:17:29.795Z,73
2022-11-22T09:27:29.707Z,35
2022-11-22T09:37:29.647Z,67
2022-11-22T09:47:29.594Z,99
2022-11-22T09:57:29.513Z,99
2022-11-22T10:07:29.542Z,99
2022-11-22T10:17:33.278Z,99
2022-11-22T10:27:29.276Z,99
2022-11-22T10:37:29.218Z,99
2022-11-22T10:47:34.104Z,99
2022-11-22T10:57:29.201Z,99
2022-11-22T11:07:29.063Z,99
2022-11-22T11:17:28.932Z,99
2022-11-22T11:27:28.882Z,99
2022-11-22T11:37:28.803Z,99
2022-11-22T11:47:28.732Z,99
2022-11-22T11:57:28.671Z,99
2022-11-22T12:07:28.698Z,99
2022-11-22T12:17:28.515Z,99
2022-11-22T12:27:28.461Z,99
2022-11-22T12:37:28.385Z,99
2022-11-22T12:47:28.310Z,99
2022-11-22T12:57:28.256Z,95
2022-11-22T13:07:28.279Z,99
2022-11-22T13:17:28.108Z,99
2022-11-22T13:27:28.023Z,99
2022-11-22T13:37:27.957Z,99
2022-11-22T13:47:27.893Z,99
2022-11-22T13:57:27.830Z,99
2022-11-22T14:07:27.840Z,99
2022-11-22T14:17:27.676Z,86
2022-11-22T14:27:27.872Z,95
2022-11-22T14:37:27.550Z,94
2022-11-22T14:47:27.473Z,89
2022-11-22T14:57:27.428Z,84
2022-11-22T15:09:11.239Z,99
2022-11-22T15:57:27.444Z,1
2022-11-22T16:07:26.955Z,1
2022-11-22T16:17:26.853Z,1
2022-11-22T16:27:26.791Z,1
2022-11-22T16:37:26.809Z,1
2022-11-22T16:47:26.650Z,1
2022-11-22T16:57:26.567Z,1
2022-11-22T17:07:26.594Z,1
2022-11-22T17:17:26.444Z,1
2022-11-22T17:27:26.371Z,1
2022-11-22T17:37:26.406Z,1
2022-11-22T17:47:26.230Z,1
2022-11-22T17:57:26.159Z,1
2022-11-22T18:07:26.133Z,1
2022-11-22T18:17:26.022Z,1
2022-11-22T18:27:25.940Z,1
2022-11-22T18:37:25.893Z,1
2022-11-22T18:47:25.824Z,1
2022-11-22T18:57:25.835Z,1
2022-11-22T19:07:25.854Z,1
2022-11-22T19:17:25.605Z,1
2022-11-22T19:27:25.530Z,1
2022-11-22T19:37:25.512Z,1
2022-11-22T19:47:25.388Z,1
2022-11-22T19:57:25.336Z,1
2022-11-22T20:07:25.406Z,1
2022-11-22T20:17:25.180Z,99
2022-11-22T20:27:25.123Z,99
2022-11-22T20:37:25.029Z,99
2022-11-22T20:47:24.970Z,99
2022-11-22T20:57:24.884Z,99
2022-11-22T21:07:24.834Z,99
2022-11-22T21:17:41.965Z,26
2022-11-22T21:27:24.661Z,34
2022-11-22T21:37:24.587Z,16
2022-11-22T21:47:24.517Z,39
2022-11-22T21:57:24.443Z,44
2022-11-22T22:07:50.936Z,25
2022-11-22T22:17:24.310Z,4
2022-11-22T22:27:24.259Z,1
2022-11-22T22:37:24.186Z,1
2022-11-22T22:47:24.098Z,1
2022-11-22T22:57:24.021Z,1
2022-11-22T23:07:24.009Z,1
2022-11-22T23:17:24.070Z,1
2022-11-22T23:27:23.825Z,1
2022-11-22T23:37:23.753Z,1
2022-11-22T23:47:23.678Z,1
2022-11-22T23:57:23.610Z,1
